sensor_id;sensor_type;location;lat;lon;timestamp;P1;durP1;ratioP1;P2;durP2;ratioP2
26516;SDS011;14190;51.342;6.338;2023-06-10T00:00:43;10.28;;;6.87;;
26516;SDS011;14190;51.342;6.338;2023-06-10T00:03:10;10.82;;;8.18;;
26516;SDS011;14190;51.342;6.338;2023-06-10T00:05:39;198.13;;;18.55;;
26516;SDS011;14190;51.342;6.338;2023-06-10T00:08:07;10.80;;;8.55;;
26516;SDS011;14190;51.342;6.338;2023-06-10T00:10:35;8.68;;;7.70;;
26516;SDS011;14190;51.342;6.338;2023-06-10T00:13:03;11.12;;;8.15;;
26516;SDS011;14190;51.342;6.338;2023-06-10T00:15:31;9.85;;;7.45;;
26516;SDS011;14190;51.342;6.338;2023-06-10T00:17:58;10.85;;;8.63;;
26516;SDS011;14190;51.342;6.338;2023-06-10T00:20:27;9.80;;;7.83;;
26516;SDS011;14190;51.342;6.338;2023-06-10T00:22:56;8.35;;;7.53;;
26516;SDS011;14190;51.342;6.338;2023-06-10T00:25:23;12.35;;;8.33;;
26516;SDS011;14190;51.342;6.338;2023-06-10T00:27:52;12.60;;;7.87;;
26516;SDS011;14190;51.342;6.338;2023-06-10T00:30:26;10.03;;;8.05;;
26516;SDS011;14190;51.342;6.338;2023-06-10T00:32:50;12.70;;;7.95;;
26516;SDS011;14190;51.342;6.338;2023-06-10T00:35:18;12.75;;;8.73;;
26516;SDS011;14190;51.342;6.338;2023-06-10T00:37:45;11.15;;;8.25;;
26516;SDS011;14190;51.342;6.338;2023-06-10T00:40:14;10.48;;;9.08;;
26516;SDS011;14190;51.342;6.338;2023-06-10T00:42:41;12.63;;;9.70;;
26516;SDS011;14190;51.342;6.338;2023-06-10T00:45:09;10.68;;;9.38;;
26516;SDS011;14190;51.342;6.338;2023-06-10T00:47:36;13.98;;;9.05;;
26516;SDS011;14190;51.342;6.338;2023-06-10T00:50:04;11.88;;;9.25;;
26516;SDS011;14190;51.342;6.338;2023-06-10T00:52:31;12.88;;;9.73;;
26516;SDS011;14190;51.342;6.338;2023-06-10T00:54:59;10.20;;;9.18;;
26516;SDS011;14190;51.342;6.338;2023-06-10T00:57:27;13.40;;;9.85;;
26516;SDS011;14190;51.342;6.338;2023-06-10T00:59:56;11.05;;;9.85;;
26516;SDS011;14190;51.342;6.338;2023-06-10T01:02:24;15.90;;;9.95;;
26516;SDS011;14190;51.342;6.338;2023-06-10T01:04:51;15.63;;;10.00;;
26516;SDS011;14190;51.342;6.338;2023-06-10T01:07:25;10.32;;;8.85;;
26516;SDS011;14190;51.342;6.338;2023-06-10T01:10:10;13.22;;;9.58;;
26516;SDS011;14190;51.342;6.338;2023-06-10T01:15:04;15.60;;;9.40;;
26516;SDS011;14190;51.342;6.338;2023-06-10T01:17:31;17.70;;;10.28;;
26516;SDS011;14190;51.342;6.338;2023-06-10T01:20:00;12.78;;;9.58;;
26516;SDS011;14190;51.342;6.338;2023-06-10T01:22:29;11.45;;;10.35;;
26516;SDS011;14190;51.342;6.338;2023-06-10T01:24:59;11.73;;;10.43;;
26516;SDS011;14190;51.342;6.338;2023-06-10T01:27:29;12.40;;;9.38;;
26516;SDS011;14190;51.342;6.338;2023-06-10T01:29:59;12.90;;;9.45;;
26516;SDS011;14190;51.342;6.338;2023-06-10T01:32:26;10.28;;;8.78;;
26516;SDS011;14190;51.342;6.338;2023-06-10T01:34:54;13.88;;;9.25;;
26516;SDS011;14190;51.342;6.338;2023-06-10T01:37:23;10.25;;;9.10;;
26516;SDS011;14190;51.342;6.338;2023-06-10T01:39:51;10.90;;;8.23;;
26516;SDS011;14190;51.342;6.338;2023-06-10T01:42:19;11.33;;;9.28;;
26516;SDS011;14190;51.342;6.338;2023-06-10T01:44:47;13.78;;;9.33;;
26516;SDS011;14190;51.342;6.338;2023-06-10T01:47:14;10.78;;;8.80;;
26516;SDS011;14190;51.342;6.338;2023-06-10T01:49:42;9.83;;;8.85;;
26516;SDS011;14190;51.342;6.338;2023-06-10T01:52:09;11.85;;;8.98;;
26516;SDS011;14190;51.342;6.338;2023-06-10T01:54:37;11.93;;;9.90;;
26516;SDS011;14190;51.342;6.338;2023-06-10T01:57:05;12.58;;;9.28;;
26516;SDS011;14190;51.342;6.338;2023-06-10T01:59:32;14.43;;;9.48;;
26516;SDS011;14190;51.342;6.338;2023-06-10T02:02:00;10.20;;;8.95;;
26516;SDS011;14190;51.342;6.338;2023-06-10T02:04:27;14.38;;;10.43;;
26516;SDS011;14190;51.342;6.338;2023-06-10T02:06:54;14.43;;;9.80;;
26516;SDS011;14190;51.342;6.338;2023-06-10T02:09:23;10.60;;;9.55;;
26516;SDS011;14190;51.342;6.338;2023-06-10T02:11:51;15.35;;;9.83;;
26516;SDS011;14190;51.342;6.338;2023-06-10T02:14:19;11.25;;;9.90;;
26516;SDS011;14190;51.342;6.338;2023-06-10T02:16:47;11.85;;;9.73;;
26516;SDS011;14190;51.342;6.338;2023-06-10T02:19:14;11.55;;;9.88;;
26516;SDS011;14190;51.342;6.338;2023-06-10T02:21:41;11.83;;;9.48;;
26516;SDS011;14190;51.342;6.338;2023-06-10T02:24:09;11.35;;;10.10;;
26516;SDS011;14190;51.342;6.338;2023-06-10T02:26:36;10.13;;;9.13;;
26516;SDS011;14190;51.342;6.338;2023-06-10T02:29:04;17.40;;;10.78;;
26516;SDS011;14190;51.342;6.338;2023-06-10T02:31:31;14.50;;;9.75;;
26516;SDS011;14190;51.342;6.338;2023-06-10T02:34:01;13.22;;;9.50;;
26516;SDS011;14190;51.342;6.338;2023-06-10T02:36:29;10.65;;;9.60;;
26516;SDS011;14190;51.342;6.338;2023-06-10T02:38:58;14.25;;;9.50;;
26516;SDS011;14190;51.342;6.338;2023-06-10T02:41:26;10.30;;;9.10;;
26516;SDS011;14190;51.342;6.338;2023-06-10T02:43:53;13.88;;;9.80;;
26516;SDS011;14190;51.342;6.338;2023-06-10T02:46:21;12.50;;;9.43;;
26516;SDS011;14190;51.342;6.338;2023-06-10T02:48:49;14.40;;;9.88;;
26516;SDS011;14190;51.342;6.338;2023-06-10T02:51:19;10.93;;;9.80;;
26516;SDS011;14190;51.342;6.338;2023-06-10T02:53:49;13.90;;;9.30;;
26516;SDS011;14190;51.342;6.338;2023-06-10T02:56:16;12.05;;;9.90;;
26516;SDS011;14190;51.342;6.338;2023-06-10T02:58:44;12.75;;;9.40;;
26516;SDS011;14190;51.342;6.338;2023-06-10T03:01:12;11.08;;;9.05;;
26516;SDS011;14190;51.342;6.338;2023-06-10T03:03:42;12.10;;;10.23;;
26516;SDS011;14190;51.342;6.338;2023-06-10T03:06:10;12.88;;;9.65;;
26516;SDS011;14190;51.342;6.338;2023-06-10T03:08:39;10.82;;;9.80;;
26516;SDS011;14190;51.342;6.338;2023-06-10T03:11:08;11.97;;;10.65;;
26516;SDS011;14190;51.342;6.338;2023-06-10T03:13:38;11.73;;;10.50;;
26516;SDS011;14190;51.342;6.338;2023-06-10T03:16:07;12.80;;;10.03;;
26516;SDS011;14190;51.342;6.338;2023-06-10T03:18:36;12.58;;;10.53;;
26516;SDS011;14190;51.342;6.338;2023-06-10T03:21:04;17.07;;;10.03;;
26516;SDS011;14190;51.342;6.338;2023-06-10T03:23:32;13.60;;;9.63;;
26516;SDS011;14190;51.342;6.338;2023-06-10T03:26:00;13.25;;;10.53;;
26516;SDS011;14190;51.342;6.338;2023-06-10T03:28:28;12.45;;;11.22;;
26516;SDS011;14190;51.342;6.338;2023-06-10T03:30:56;16.27;;;10.75;;
26516;SDS011;14190;51.342;6.338;2023-06-10T03:33:24;16.15;;;11.33;;
26516;SDS011;14190;51.342;6.338;2023-06-10T03:35:52;14.03;;;10.43;;
26516;SDS011;14190;51.342;6.338;2023-06-10T03:38:20;11.68;;;10.55;;
26516;SDS011;14190;51.342;6.338;2023-06-10T03:40:47;13.35;;;11.60;;
26516;SDS011;14190;51.342;6.338;2023-06-10T03:43:15;21.50;;;11.12;;
26516;SDS011;14190;51.342;6.338;2023-06-10T03:45:42;35.65;;;14.33;;
26516;SDS011;14190;51.342;6.338;2023-06-10T03:48:10;43.10;;;14.90;;
26516;SDS011;14190;51.342;6.338;2023-06-10T03:50:39;39.03;;;14.05;;
26516;SDS011;14190;51.342;6.338;2023-06-10T03:53:06;30.55;;;12.03;;
26516;SDS011;14190;51.342;6.338;2023-06-10T03:55:34;41.30;;;13.78;;
26516;SDS011;14190;51.342;6.338;2023-06-10T03:58:02;24.57;;;14.33;;
26516;SDS011;14190;51.342;6.338;2023-06-10T04:00:30;29.07;;;14.95;;
26516;SDS011;14190;51.342;6.338;2023-06-10T04:02:58;27.13;;;14.65;;
26516;SDS011;14190;51.342;6.338;2023-06-10T04:05:27;26.50;;;12.37;;
26516;SDS011;14190;51.342;6.338;2023-06-10T04:07:55;25.23;;;14.05;;
26516;SDS011;14190;51.342;6.338;2023-06-10T04:10:23;34.95;;;13.13;;
26516;SDS011;14190;51.342;6.338;2023-06-10T04:12:50;21.40;;;13.00;;
26516;SDS011;14190;51.342;6.338;2023-06-10T04:15:19;15.05;;;13.22;;
26516;SDS011;14190;51.342;6.338;2023-06-10T04:17:46;17.65;;;12.88;;
26516;SDS011;14190;51.342;6.338;2023-06-10T04:20:16;17.77;;;12.80;;
26516;SDS011;14190;51.342;6.338;2023-06-10T04:22:44;17.98;;;13.78;;
26516;SDS011;14190;51.342;6.338;2023-06-10T04:25:12;20.57;;;12.70;;
26516;SDS011;14190;51.342;6.338;2023-06-10T04:27:40;13.90;;;12.40;;
26516;SDS011;14190;51.342;6.338;2023-06-10T04:30:07;16.30;;;13.13;;
26516;SDS011;14190;51.342;6.338;2023-06-10T04:32:36;16.52;;;13.70;;
26516;SDS011;14190;51.342;6.338;2023-06-10T04:35:04;19.02;;;14.68;;
26516;SDS011;14190;51.342;6.338;2023-06-10T04:37:32;16.55;;;13.58;;
26516;SDS011;14190;51.342;6.338;2023-06-10T04:39:59;20.88;;;14.40;;
26516;SDS011;14190;51.342;6.338;2023-06-10T04:42:27;25.40;;;15.00;;
26516;SDS011;14190;51.342;6.338;2023-06-10T04:44:55;18.05;;;13.75;;
26516;SDS011;14190;51.342;6.338;2023-06-10T04:47:23;23.40;;;14.65;;
26516;SDS011;14190;51.342;6.338;2023-06-10T04:49:50;15.72;;;14.10;;
26516;SDS011;14190;51.342;6.338;2023-06-10T04:52:18;18.75;;;14.40;;
26516;SDS011;14190;51.342;6.338;2023-06-10T04:54:46;20.95;;;15.83;;
26516;SDS011;14190;51.342;6.338;2023-06-10T04:57:14;17.12;;;13.60;;
26516;SDS011;14190;51.342;6.338;2023-06-10T04:59:42;19.87;;;15.53;;
26516;SDS011;14190;51.342;6.338;2023-06-10T05:02:09;20.40;;;14.83;;
26516;SDS011;14190;51.342;6.338;2023-06-10T05:04:37;22.82;;;15.60;;
26516;SDS011;14190;51.342;6.338;2023-06-10T05:07:04;20.12;;;16.10;;
26516;SDS011;14190;51.342;6.338;2023-06-10T05:09:32;21.70;;;16.52;;
26516;SDS011;14190;51.342;6.338;2023-06-10T05:11:59;20.97;;;15.65;;
26516;SDS011;14190;51.342;6.338;2023-06-10T05:14:26;25.37;;;16.23;;
26516;SDS011;14190;51.342;6.338;2023-06-10T05:16:54;18.92;;;15.13;;
26516;SDS011;14190;51.342;6.338;2023-06-10T05:19:21;19.17;;;15.65;;
26516;SDS011;14190;51.342;6.338;2023-06-10T05:21:49;23.38;;;17.02;;
26516;SDS011;14190;51.342;6.338;2023-06-10T05:24:16;19.50;;;15.72;;
26516;SDS011;14190;51.342;6.338;2023-06-10T05:26:43;18.55;;;15.80;;
26516;SDS011;14190;51.342;6.338;2023-06-10T05:29:11;20.02;;;16.07;;
26516;SDS011;14190;51.342;6.338;2023-06-10T05:31:38;21.85;;;16.20;;
26516;SDS011;14190;51.342;6.338;2023-06-10T05:34:06;20.02;;;16.35;;
26516;SDS011;14190;51.342;6.338;2023-06-10T05:36:33;24.20;;;15.65;;
26516;SDS011;14190;51.342;6.338;2023-06-10T05:39:00;22.52;;;15.65;;
26516;SDS011;14190;51.342;6.338;2023-06-10T05:41:28;19.52;;;15.23;;
26516;SDS011;14190;51.342;6.338;2023-06-10T05:43:57;23.50;;;14.73;;
26516;SDS011;14190;51.342;6.338;2023-06-10T05:46:24;20.08;;;15.43;;
26516;SDS011;14190;51.342;6.338;2023-06-10T05:48:51;19.45;;;14.53;;
26516;SDS011;14190;51.342;6.338;2023-06-10T05:51:19;20.50;;;16.05;;
26516;SDS011;14190;51.342;6.338;2023-06-10T05:53:46;19.82;;;14.38;;
26516;SDS011;14190;51.342;6.338;2023-06-10T05:56:14;21.97;;;15.45;;
26516;SDS011;14190;51.342;6.338;2023-06-10T05:58:41;22.30;;;14.60;;
26516;SDS011;14190;51.342;6.338;2023-06-10T06:01:08;18.50;;;14.10;;
26516;SDS011;14190;51.342;6.338;2023-06-10T06:03:36;19.30;;;15.03;;
26516;SDS011;14190;51.342;6.338;2023-06-10T06:06:03;18.60;;;13.68;;
26516;SDS011;14190;51.342;6.338;2023-06-10T06:08:31;19.57;;;13.98;;
26516;SDS011;14190;51.342;6.338;2023-06-10T06:10:58;17.07;;;12.78;;
26516;SDS011;14190;51.342;6.338;2023-06-10T06:13:26;18.17;;;13.85;;
26516;SDS011;14190;51.342;6.338;2023-06-10T06:15:53;19.40;;;13.72;;
26516;SDS011;14190;51.342;6.338;2023-06-10T06:18:20;21.60;;;14.47;;
26516;SDS011;14190;51.342;6.338;2023-06-10T06:20:48;18.30;;;12.45;;
26516;SDS011;14190;51.342;6.338;2023-06-10T06:23:15;14.60;;;12.80;;
26516;SDS011;14190;51.342;6.338;2023-06-10T06:25:43;19.23;;;13.43;;
26516;SDS011;14190;51.342;6.338;2023-06-10T06:28:10;17.02;;;11.90;;
26516;SDS011;14190;51.342;6.338;2023-06-10T06:30:37;16.93;;;12.43;;
26516;SDS011;14190;51.342;6.338;2023-06-10T06:33:05;15.78;;;11.93;;
26516;SDS011;14190;51.342;6.338;2023-06-10T06:35:32;16.32;;;12.30;;
26516;SDS011;14190;51.342;6.338;2023-06-10T06:38:02;14.17;;;11.13;;
26516;SDS011;14190;51.342;6.338;2023-06-10T06:40:31;20.43;;;12.73;;
26516;SDS011;14190;51.342;6.338;2023-06-10T06:42:58;19.80;;;12.68;;
26516;SDS011;14190;51.342;6.338;2023-06-10T06:45:39;16.42;;;10.95;;
26516;SDS011;14190;51.342;6.338;2023-06-10T06:48:07;16.05;;;11.53;;
26516;SDS011;14190;51.342;6.338;2023-06-10T06:50:34;16.30;;;11.60;;
26516;SDS011;14190;51.342;6.338;2023-06-10T06:53:01;19.95;;;10.35;;
26516;SDS011;14190;51.342;6.338;2023-06-10T06:55:29;15.32;;;10.85;;
26516;SDS011;14190;51.342;6.338;2023-06-10T06:57:56;17.80;;;10.65;;
26516;SDS011;14190;51.342;6.338;2023-06-10T07:00:25;17.15;;;9.68;;
26516;SDS011;14190;51.342;6.338;2023-06-10T07:02:52;16.93;;;10.60;;
26516;SDS011;14190;51.342;6.338;2023-06-10T07:05:19;18.30;;;11.03;;
26516;SDS011;14190;51.342;6.338;2023-06-10T07:07:47;19.70;;;10.75;;
26516;SDS011;14190;51.342;6.338;2023-06-10T07:10:14;19.57;;;10.43;;
26516;SDS011;14190;51.342;6.338;2023-06-10T07:12:41;14.18;;;9.95;;
26516;SDS011;14190;51.342;6.338;2023-06-10T07:15:09;14.47;;;10.50;;
26516;SDS011;14190;51.342;6.338;2023-06-10T07:17:36;11.97;;;10.48;;
26516;SDS011;14190;51.342;6.338;2023-06-10T07:20:04;19.90;;;10.48;;
26516;SDS011;14190;51.342;6.338;2023-06-10T07:22:31;17.98;;;9.55;;
26516;SDS011;14190;51.342;6.338;2023-06-10T07:24:59;11.95;;;8.88;;
26516;SDS011;14190;51.342;6.338;2023-06-10T07:27:26;15.88;;;9.68;;
26516;SDS011;14190;51.342;6.338;2023-06-10T07:29:53;9.83;;;8.83;;
26516;SDS011;14190;51.342;6.338;2023-06-10T07:32:21;12.43;;;9.08;;
26516;SDS011;14190;51.342;6.338;2023-06-10T07:34:50;15.35;;;9.30;;
26516;SDS011;14190;51.342;6.338;2023-06-10T07:37:17;11.43;;;8.73;;
26516;SDS011;14190;51.342;6.338;2023-06-10T07:39:46;10.38;;;8.93;;
26516;SDS011;14190;51.342;6.338;2023-06-10T07:42:13;14.25;;;8.85;;
26516;SDS011;14190;51.342;6.338;2023-06-10T07:44:41;15.08;;;9.33;;
26516;SDS011;14190;51.342;6.338;2023-06-10T07:47:08;13.93;;;8.83;;
26516;SDS011;14190;51.342;6.338;2023-06-10T07:49:35;10.88;;;9.33;;
26516;SDS011;14190;51.342;6.338;2023-06-10T07:52:03;13.08;;;8.95;;
26516;SDS011;14190;51.342;6.338;2023-06-10T07:54:30;18.30;;;8.55;;
26516;SDS011;14190;51.342;6.338;2023-06-10T07:56:58;10.88;;;8.93;;
26516;SDS011;14190;51.342;6.338;2023-06-10T07:59:25;11.18;;;8.35;;
26516;SDS011;14190;51.342;6.338;2023-06-10T08:01:52;10.25;;;8.05;;
26516;SDS011;14190;51.342;6.338;2023-06-10T08:04:20;12.05;;;8.35;;
26516;SDS011;14190;51.342;6.338;2023-06-10T08:06:47;12.50;;;8.88;;
26516;SDS011;14190;51.342;6.338;2023-06-10T08:09:15;14.60;;;8.45;;
26516;SDS011;14190;51.342;6.338;2023-06-10T08:11:48;11.57;;;8.78;;
26516;SDS011;14190;51.342;6.338;2023-06-10T08:14:16;13.88;;;7.78;;
26516;SDS011;14190;51.342;6.338;2023-06-10T08:16:43;8.40;;;7.47;;
26516;SDS011;14190;51.342;6.338;2023-06-10T08:19:11;11.48;;;7.58;;
26516;SDS011;14190;51.342;6.338;2023-06-10T08:21:38;11.25;;;8.48;;
26516;SDS011;14190;51.342;6.338;2023-06-10T08:24:06;9.78;;;7.62;;
26516;SDS011;14190;51.342;6.338;2023-06-10T08:26:34;9.60;;;8.30;;
26516;SDS011;14190;51.342;6.338;2023-06-10T08:29:02;9.83;;;8.45;;
26516;SDS011;14190;51.342;6.338;2023-06-10T08:31:29;13.93;;;7.85;;
26516;SDS011;14190;51.342;6.338;2023-06-10T08:33:58;8.58;;;7.60;;
26516;SDS011;14190;51.342;6.338;2023-06-10T08:36:26;8.68;;;7.42;;
26516;SDS011;14190;51.342;6.338;2023-06-10T08:38:53;12.05;;;8.35;;
26516;SDS011;14190;51.342;6.338;2023-06-10T08:41:21;10.40;;;7.78;;
26516;SDS011;14190;51.342;6.338;2023-06-10T08:44:02;10.23;;;7.95;;
26516;SDS011;14190;51.342;6.338;2023-06-10T08:46:19;12.90;;;7.83;;
26516;SDS011;14190;51.342;6.338;2023-06-10T08:48:46;11.65;;;8.10;;
26516;SDS011;14190;51.342;6.338;2023-06-10T08:51:15;15.75;;;8.23;;
26516;SDS011;14190;51.342;6.338;2023-06-10T08:53:48;11.20;;;8.13;;
26516;SDS011;14190;51.342;6.338;2023-06-10T08:56:13;13.15;;;8.33;;
26516;SDS011;14190;51.342;6.338;2023-06-10T08:58:41;15.30;;;8.18;;
26516;SDS011;14190;51.342;6.338;2023-06-10T09:01:09;10.55;;;7.35;;
26516;SDS011;14190;51.342;6.338;2023-06-10T09:03:37;9.95;;;7.90;;
26516;SDS011;14190;51.342;6.338;2023-06-10T09:06:05;12.68;;;8.50;;
26516;SDS011;14190;51.342;6.338;2023-06-10T09:08:35;15.18;;;7.17;;
26516;SDS011;14190;51.342;6.338;2023-06-10T09:11:04;15.00;;;7.95;;
26516;SDS011;14190;51.342;6.338;2023-06-10T09:13:32;13.00;;;8.53;;
26516;SDS011;14190;51.342;6.338;2023-06-10T09:15:59;12.25;;;7.40;;
26516;SDS011;14190;51.342;6.338;2023-06-10T09:18:29;15.95;;;7.65;;
26516;SDS011;14190;51.342;6.338;2023-06-10T09:20:56;8.90;;;7.10;;
26516;SDS011;14190;51.342;6.338;2023-06-10T09:23:24;10.58;;;7.75;;
26516;SDS011;14190;51.342;6.338;2023-06-10T09:25:56;11.30;;;7.72;;
26516;SDS011;14190;51.342;6.338;2023-06-10T09:28:24;10.45;;;7.67;;
26516;SDS011;14190;51.342;6.338;2023-06-10T09:31:13;11.10;;;7.22;;
26516;SDS011;14190;51.342;6.338;2023-06-10T09:33:23;12.10;;;7.17;;
26516;SDS011;14190;51.342;6.338;2023-06-10T09:35:49;15.20;;;7.37;;
26516;SDS011;14190;51.342;6.338;2023-06-10T09:38:20;10.63;;;7.87;;
26516;SDS011;14190;51.342;6.338;2023-06-10T09:40:51;10.80;;;8.00;;
26516;SDS011;14190;51.342;6.338;2023-06-10T09:43:19;12.63;;;7.28;;
26516;SDS011;14190;51.342;6.338;2023-06-10T09:45:50;9.78;;;7.35;;
26516;SDS011;14190;51.342;6.338;2023-06-10T09:48:20;10.78;;;7.08;;
26516;SDS011;14190;51.342;6.338;2023-06-10T09:50:48;10.75;;;7.72;;
26516;SDS011;14190;51.342;6.338;2023-06-10T09:53:16;9.80;;;8.43;;
26516;SDS011;14190;51.342;6.338;2023-06-10T09:55:44;10.30;;;7.33;;
26516;SDS011;14190;51.342;6.338;2023-06-10T09:58:12;11.28;;;7.35;;
26516;SDS011;14190;51.342;6.338;2023-06-10T10:00:39;12.53;;;7.67;;
26516;SDS011;14190;51.342;6.338;2023-06-10T10:03:07;16.52;;;8.38;;
26516;SDS011;14190;51.342;6.338;2023-06-10T10:05:34;17.80;;;8.15;;
26516;SDS011;14190;51.342;6.338;2023-06-10T10:08:01;16.87;;;8.43;;
26516;SDS011;14190;51.342;6.338;2023-06-10T10:10:29;16.48;;;8.35;;
26516;SDS011;14190;51.342;6.338;2023-06-10T10:12:56;14.38;;;8.18;;
26516;SDS011;14190;51.342;6.338;2023-06-10T10:15:25;11.83;;;7.55;;
26516;SDS011;14190;51.342;6.338;2023-06-10T10:18:14;11.65;;;6.85;;
26516;SDS011;14190;51.342;6.338;2023-06-10T10:20:29;14.80;;;8.25;;
26516;SDS011;14190;51.342;6.338;2023-06-10T10:22:57;16.62;;;7.42;;
26516;SDS011;14190;51.342;6.338;2023-06-10T10:25:34;13.48;;;7.47;;
26516;SDS011;14190;51.342;6.338;2023-06-10T10:28:06;17.77;;;8.55;;
26516;SDS011;14190;51.342;6.338;2023-06-10T10:30:28;13.03;;;8.63;;
26516;SDS011;14190;51.342;6.338;2023-06-10T10:32:58;11.22;;;8.03;;
26516;SDS011;14190;51.342;6.338;2023-06-10T10:35:26;17.85;;;8.00;;
26516;SDS011;14190;51.342;6.338;2023-06-10T10:37:55;19.67;;;8.83;;
26516;SDS011;14190;51.342;6.338;2023-06-10T10:40:23;13.98;;;8.00;;
26516;SDS011;14190;51.342;6.338;2023-06-10T10:42:51;13.22;;;7.65;;
26516;SDS011;14190;51.342;6.338;2023-06-10T10:45:19;15.83;;;8.70;;
26516;SDS011;14190;51.342;6.338;2023-06-10T10:47:51;21.57;;;7.75;;
26516;SDS011;14190;51.342;6.338;2023-06-10T10:50:17;14.03;;;8.40;;
26516;SDS011;14190;51.342;6.338;2023-06-10T10:55:20;13.43;;;7.60;;
26516;SDS011;14190;51.342;6.338;2023-06-10T10:57:59;9.45;;;6.87;;
26516;SDS011;14190;51.342;6.338;2023-06-10T11:00:36;11.73;;;6.97;;
26516;SDS011;14190;51.342;6.338;2023-06-10T11:03:07;16.40;;;7.75;;
26516;SDS011;14190;51.342;6.338;2023-06-10T11:05:41;10.80;;;6.97;;
26516;SDS011;14190;51.342;6.338;2023-06-10T11:08:14;11.88;;;7.25;;
26516;SDS011;14190;51.342;6.338;2023-06-10T11:10:50;8.33;;;7.08;;
26516;SDS011;14190;51.342;6.338;2023-06-10T11:13:14;9.23;;;6.83;;
26516;SDS011;14190;51.342;6.338;2023-06-10T11:15:45;9.38;;;6.75;;
26516;SDS011;14190;51.342;6.338;2023-06-10T11:18:25;9.50;;;7.58;;
26516;SDS011;14190;51.342;6.338;2023-06-10T11:20:53;11.93;;;7.00;;
26516;SDS011;14190;51.342;6.338;2023-06-10T11:28:39;11.35;;;7.12;;
26516;SDS011;14190;51.342;6.338;2023-06-10T11:31:06;10.28;;;7.20;;
26516;SDS011;14190;51.342;6.338;2023-06-10T11:33:34;9.70;;;6.87;;
26516;SDS011;14190;51.342;6.338;2023-06-10T11:36:06;8.68;;;6.83;;
26516;SDS011;14190;51.342;6.338;2023-06-10T11:38:32;8.30;;;7.05;;
26516;SDS011;14190;51.342;6.338;2023-06-10T11:40:59;12.03;;;6.87;;
26516;SDS011;14190;51.342;6.338;2023-06-10T11:43:28;8.40;;;6.45;;
26516;SDS011;14190;51.342;6.338;2023-06-10T11:45:57;11.85;;;7.90;;
26516;SDS011;14190;51.342;6.338;2023-06-10T11:48:24;10.55;;;6.42;;
26516;SDS011;14190;51.342;6.338;2023-06-10T11:50:53;8.78;;;7.20;;
26516;SDS011;14190;51.342;6.338;2023-06-10T11:53:20;9.23;;;7.03;;
26516;SDS011;14190;51.342;6.338;2023-06-10T11:55:50;7.87;;;6.95;;
26516;SDS011;14190;51.342;6.338;2023-06-10T11:58:18;11.15;;;7.17;;
26516;SDS011;14190;51.342;6.338;2023-06-10T12:00:47;11.10;;;6.70;;
26516;SDS011;14190;51.342;6.338;2023-06-10T12:03:14;8.03;;;6.35;;
26516;SDS011;14190;51.342;6.338;2023-06-10T12:05:58;9.30;;;7.17;;
26516;SDS011;14190;51.342;6.338;2023-06-10T12:08:27;8.60;;;7.03;;
26516;SDS011;14190;51.342;6.338;2023-06-10T12:10:54;10.80;;;7.33;;
26516;SDS011;14190;51.342;6.338;2023-06-10T12:13:23;12.93;;;6.87;;
26516;SDS011;14190;51.342;6.338;2023-06-10T12:15:53;7.65;;;6.60;;
26516;SDS011;14190;51.342;6.338;2023-06-10T12:18:22;10.63;;;6.47;;
26516;SDS011;14190;51.342;6.338;2023-06-10T12:20:50;7.47;;;6.40;;
26516;SDS011;14190;51.342;6.338;2023-06-10T12:23:17;7.87;;;7.00;;
26516;SDS011;14190;51.342;6.338;2023-06-10T12:25:53;10.70;;;6.92;;
26516;SDS011;14190;51.342;6.338;2023-06-10T12:28:21;8.73;;;6.55;;
26516;SDS011;14190;51.342;6.338;2023-06-10T12:30:48;9.93;;;6.78;;
26516;SDS011;14190;51.342;6.338;2023-06-10T12:33:19;8.68;;;6.90;;
26516;SDS011;14190;51.342;6.338;2023-06-10T12:35:47;9.45;;;7.22;;
26516;SDS011;14190;51.342;6.338;2023-06-10T12:38:20;9.08;;;7.15;;
26516;SDS011;14190;51.342;6.338;2023-06-10T12:40:44;7.30;;;6.45;;
26516;SDS011;14190;51.342;6.338;2023-06-10T12:43:11;12.37;;;6.65;;
26516;SDS011;14190;51.342;6.338;2023-06-10T12:45:39;8.33;;;6.72;;
26516;SDS011;14190;51.342;6.338;2023-06-10T12:48:16;9.70;;;7.10;;
26516;SDS011;14190;51.342;6.338;2023-06-10T12:50:41;13.53;;;8.28;;
26516;SDS011;14190;51.342;6.338;2023-06-10T12:53:08;6.95;;;6.25;;
26516;SDS011;14190;51.342;6.338;2023-06-10T12:55:37;11.00;;;7.30;;
26516;SDS011;14190;51.342;6.338;2023-06-10T12:58:05;10.23;;;6.92;;
26516;SDS011;14190;51.342;6.338;2023-06-10T13:00:32;10.95;;;7.62;;
26516;SDS011;14190;51.342;6.338;2023-06-10T13:03:01;8.63;;;7.65;;
26516;SDS011;14190;51.342;6.338;2023-06-10T13:05:29;8.83;;;6.72;;
26516;SDS011;14190;51.342;6.338;2023-06-10T13:07:56;7.62;;;6.75;;
26516;SDS011;14190;51.342;6.338;2023-06-10T13:10:24;7.60;;;6.83;;
26516;SDS011;14190;51.342;6.338;2023-06-10T13:12:52;9.60;;;6.65;;
26516;SDS011;14190;51.342;6.338;2023-06-10T13:15:21;22.70;;;7.63;;
26516;SDS011;14190;51.342;6.338;2023-06-10T13:17:48;8.80;;;6.83;;
26516;SDS011;14190;51.342;6.338;2023-06-10T13:20:16;17.57;;;6.50;;
26516;SDS011;14190;51.342;6.338;2023-06-10T13:22:44;8.35;;;6.87;;
26516;SDS011;14190;51.342;6.338;2023-06-10T13:25:12;8.75;;;6.45;;
26516;SDS011;14190;51.342;6.338;2023-06-10T13:27:39;8.38;;;6.65;;
26516;SDS011;14190;51.342;6.338;2023-06-10T13:30:08;7.55;;;6.58;;
26516;SDS011;14190;51.342;6.338;2023-06-10T13:32:36;10.72;;;7.70;;
26516;SDS011;14190;51.342;6.338;2023-06-10T13:35:04;11.33;;;7.22;;
26516;SDS011;14190;51.342;6.338;2023-06-10T13:37:32;10.43;;;6.55;;
26516;SDS011;14190;51.342;6.338;2023-06-10T13:40:01;6.85;;;6.25;;
26516;SDS011;14190;51.342;6.338;2023-06-10T13:42:29;11.40;;;6.33;;
26516;SDS011;14190;51.342;6.338;2023-06-10T13:44:56;11.95;;;7.20;;
26516;SDS011;14190;51.342;6.338;2023-06-10T13:47:24;13.22;;;6.70;;
26516;SDS011;14190;51.342;6.338;2023-06-10T13:49:52;9.68;;;7.15;;
26516;SDS011;14190;51.342;6.338;2023-06-10T13:52:19;10.55;;;6.72;;
26516;SDS011;14190;51.342;6.338;2023-06-10T13:54:46;8.53;;;6.75;;
26516;SDS011;14190;51.342;6.338;2023-06-10T13:57:14;11.38;;;6.83;;
26516;SDS011;14190;51.342;6.338;2023-06-10T13:59:41;8.08;;;6.70;;
26516;SDS011;14190;51.342;6.338;2023-06-10T14:02:09;12.07;;;7.00;;
26516;SDS011;14190;51.342;6.338;2023-06-10T14:04:37;8.03;;;6.42;;
26516;SDS011;14190;51.342;6.338;2023-06-10T14:07:06;10.88;;;6.58;;
26516;SDS011;14190;51.342;6.338;2023-06-10T14:09:34;9.63;;;6.55;;
26516;SDS011;14190;51.342;6.338;2023-06-10T14:12:01;8.23;;;7.20;;
26516;SDS011;14190;51.342;6.338;2023-06-10T14:14:30;10.60;;;7.05;;
26516;SDS011;14190;51.342;6.338;2023-06-10T14:16:59;12.73;;;7.10;;
26516;SDS011;14190;51.342;6.338;2023-06-10T14:19:26;6.95;;;6.25;;
26516;SDS011;14190;51.342;6.338;2023-06-10T14:21:53;7.50;;;6.17;;
26516;SDS011;14190;51.342;6.338;2023-06-10T14:24:21;7.62;;;6.92;;
26516;SDS011;14190;51.342;6.338;2023-06-10T14:26:49;9.40;;;6.75;;
26516;SDS011;14190;51.342;6.338;2023-06-10T14:29:16;7.00;;;6.37;;
26516;SDS011;14190;51.342;6.338;2023-06-10T14:31:45;10.47;;;7.80;;
26516;SDS011;14190;51.342;6.338;2023-06-10T14:34:12;11.10;;;6.45;;
26516;SDS011;14190;51.342;6.338;2023-06-10T14:36:41;12.20;;;6.45;;
26516;SDS011;14190;51.342;6.338;2023-06-10T14:39:08;8.60;;;6.17;;
26516;SDS011;14190;51.342;6.338;2023-06-10T14:41:36;12.37;;;6.65;;
26516;SDS011;14190;51.342;6.338;2023-06-10T14:44:03;7.30;;;6.37;;
26516;SDS011;14190;51.342;6.338;2023-06-10T14:46:30;8.35;;;6.50;;
26516;SDS011;14190;51.342;6.338;2023-06-10T14:48:58;7.62;;;6.53;;